Time;durP1;ratioP1;P1;durP2;ratioP2;P2;SDS_P1;SDS_P2;PMS_P1;PMS_P2;Temp;Humidity;BMP_temperature;BMP_pressure;BME280_temperature;BME280_humidity;BME280_pressure;Samples;Min_cycle;Max_cycle;Signal;HPM_P1;HPM_P2
2023/02/09 00:01:03;;;;;;;6.30;3.00;;;3.00;60.80;;;;;;5026887;28;20022;-67
2023/02/09 00:03:29;;;;;;;5.32;2.30;;;3.00;61.00;;;;;;5022521;28;20057;-67
2023/02/09 00:05:57;;;;;;;3.55;2.10;;;3.00;61.10;;;;;;5021971;28;20124;-67
2023/02/09 00:08:22;;;;;;;5.25;2.40;;;3.00;61.00;;;;;;5026869;28;20029;-67
2023/02/09 00:10:48;;;;;;;2.88;1.90;;;2.90;61.20;;;;;;5027401;28;20823;-67
2023/02/09 00:13:23;;;;;;;3.88;1.70;;;2.90;61.30;;;;;;5025123;28;20037;-67
2023/02/09 00:15:50;;;;;;;5.43;2.67;;;2.90;61.50;;;;;;5022111;28;20052;-69
2023/02/09 00:18:16;;;;;;;5.00;2.10;;;2.90;61.50;;;;;;5025635;28;20041;-67
2023/02/09 00:20:41;;;;;;;4.50;2.65;;;2.90;61.70;;;;;;5027045;28;20021;-67
2023/02/09 00:23:07;;;;;;;5.53;2.70;;;2.90;61.80;;;;;;5028901;28;20037;-67
2023/02/09 00:25:33;;;;;;;7.05;3.53;;;2.90;61.80;;;;;;5020757;28;20034;-67
2023/02/09 00:27:58;;;;;;;6.57;2.70;;;2.80;61.50;;;;;;5029268;28;20040;-67
2023/02/09 00:30:24;;;;;;;4.68;2.28;;;2.80;61.50;;;;;;5029766;28;20033;-67
2023/02/09 00:32:49;;;;;;;3.75;2.20;;;2.80;61.70;;;;;;5022104;28;20022;-68
2023/02/09 00:35:16;;;;;;;5.35;2.05;;;2.80;61.90;;;;;;5022177;28;20034;-67
2023/02/09 00:37:41;;;;;;;3.83;2.10;;;2.80;62.00;;;;;;5024889;28;20434;-67
2023/02/09 00:40:07;;;;;;;3.42;2.17;;;2.80;62.10;;;;;;5029513;28;20038;-67
2023/02/09 00:42:33;;;;;;;3.78;1.77;;;2.70;62.10;;;;;;5029124;28;20525;-67
2023/02/09 00:44:58;;;;;;;3.45;1.75;;;2.70;62.30;;;;;;5030997;28;20037;-67
2023/02/09 00:47:24;;;;;;;2.22;1.60;;;2.70;62.30;;;;;;5030191;28;20113;-67
2023/02/09 00:49:50;;;;;;;4.13;1.60;;;2.70;62.40;;;;;;5030744;28;20064;-67
2023/02/09 00:52:15;;;;;;;2.83;1.52;;;2.70;62.60;;;;;;5030874;28;20546;-67
2023/02/09 00:54:41;;;;;;;4.53;1.77;;;2.70;62.70;;;;;;5029478;28;20017;-68
2023/02/09 00:57:06;;;;;;;2.42;1.50;;;2.70;62.80;;;;;;5030395;28;20097;-67
2023/02/09 00:59:33;;;;;;;1.75;1.50;;;2.60;62.90;;;;;;5030159;28;20507;-67
2023/02/09 01:01:59;;;;;;;3.28;1.50;;;2.70;63.00;;;;;;5031010;28;20112;-67
2023/02/09 01:04:25;;;;;;;3.35;1.90;;;2.60;62.90;;;;;;5028034;28;20647;-67
2023/02/09 01:06:50;;;;;;;2.33;1.70;;;2.60;63.10;;;;;;5030544;28;20464;-67
2023/02/09 01:09:16;;;;;;;5.57;2.50;;;2.60;63.20;;;;;;5030334;28;20108;-67
2023/02/09 01:11:41;;;;;;;3.45;1.77;;;2.50;63.10;;;;;;5029492;28;20506;-67
2023/02/09 01:14:08;;;;;;;4.03;2.45;;;2.50;63.10;;;;;;5029983;28;20531;-67
2023/02/09 01:16:34;;;;;;;3.72;2.03;;;2.50;63.20;;;;;;5030779;28;20032;-67
2023/02/09 01:19:01;;;;;;;4.15;2.17;;;2.40;63.30;;;;;;5028030;28;20033;-67
2023/02/09 01:21:29;;;;;;;3.35;1.80;;;2.40;63.40;;;;;;5026985;28;20073;-67
2023/02/09 01:23:55;;;;;;;3.13;2.00;;;2.40;63.50;;;;;;5026087;28;20071;-67
2023/02/09 01:26:21;;;;;;;3.00;1.70;;;2.40;63.50;;;;;;5029847;28;20037;-67
2023/02/09 01:28:51;;;;;;;4.68;2.10;;;2.30;63.60;;;;;;5029907;28;20494;-67
2023/02/09 01:31:26;;;;;;;4.97;2.00;;;2.30;63.70;;;;;;5029006;28;20035;-67
2023/02/09 01:33:54;;;;;;;2.92;2.00;;;2.30;63.80;;;;;;5028115;28;20116;-67
2023/02/09 01:36:20;;;;;;;5.00;2.38;;;2.30;63.90;;;;;;5030345;28;20029;-68
2023/02/09 01:38:46;;;;;;;2.88;1.50;;;2.20;63.90;;;;;;5029258;28;20033;-67
2023/02/09 01:41:12;;;;;;;3.95;1.98;;;2.20;64.00;;;;;;5030006;28;20084;-67
2023/02/09 01:43:51;;;;;;;3.85;1.92;;;2.20;64.10;;;;;;5030006;28;20093;-67
2023/02/09 01:46:17;;;;;;;5.40;2.33;;;2.10;64.10;;;;;;5029880;28;20029;-67
2023/02/09 01:48:42;;;;;;;3.00;2.20;;;2.10;64.10;;;;;;5029773;28;20022;-67
2023/02/09 01:51:08;;;;;;;3.72;2.05;;;2.10;64.20;;;;;;5029878;28;20057;-67
2023/02/09 01:53:34;;;;;;;3.40;1.67;;;2.10;64.20;;;;;;5029556;28;20029;-67
2023/02/09 01:56:15;;;;;;;4.63;1.80;;;2.10;64.30;;;;;;5029938;28;20052;-67
2023/02/09 01:58:41;;;;;;;5.90;1.83;;;2.00;64.40;;;;;;5028601;28;20164;-67
2023/02/09 02:01:07;;;;;;;3.83;2.15;;;2.00;64.40;;;;;;5029694;28;20049;-67
2023/02/09 02:03:33;;;;;;;5.55;2.58;;;2.00;64.40;;;;;;5029432;28;20060;-67
2023/02/09 02:06:06;;;;;;;5.07;2.45;;;1.90;64.30;;;;;;5029923;28;20030;-67
2023/02/09 02:08:39;;;;;;;5.95;2.53;;;1.90;64.40;;;;;;5026950;28;20032;-67
2023/02/09 02:11:07;;;;;;;3.05;1.90;;;1.90;64.40;;;;;;5029627;28;20056;-68
2023/02/09 02:13:33;;;;;;;5.30;2.90;;;1.90;64.40;;;;;;5029567;28;20376;-68
2023/02/09 02:16:11;;;;;;;6.72;2.80;;;1.90;64.30;;;;;;5027211;28;20025;-67
2023/02/09 02:18:37;;;;;;;6.50;3.00;;;1.80;64.30;;;;;;5026718;28;20033;-67
2023/02/09 02:21:13;;;;;;;7.35;3.33;;;1.80;64.30;;;;;;5029161;28;20026;-66
2023/02/09 02:24:10;;;;;;;5.72;2.85;;;1.80;64.30;;;;;;5026593;28;20092;-67
2023/02/09 02:26:42;;;;;;;4.95;2.17;;;1.80;64.30;;;;;;5028525;28;20033;-67
2023/02/09 02:29:48;;;;;;;7.80;2.80;;;1.80;64.30;;;;;;5028623;28;20022;-67
2023/02/09 02:32:33;;;;;;;7.07;2.95;;;1.80;64.30;;;;;;5027025;28;20029;-67
2023/02/09 02:35:25;;;;;;;5.88;2.90;;;1.80;64.30;;;;;;5028513;28;20029;-67
2023/02/09 02:38:12;;;;;;;4.25;2.53;;;1.70;64.20;;;;;;5008221;28;20798;-67
2023/02/09 02:40:58;;;;;;;6.22;2.83;;;1.70;64.20;;;;;;5022466;28;20717;-67
2023/02/09 02:43:41;;;;;;;4.25;2.03;;;1.70;64.20;;;;;;5028859;28;20147;-67
2023/02/09 02:46:26;;;;;;;3.95;2.55;;;1.70;64.20;;;;;;5028632;28;20036;-67
2023/02/09 02:48:56;;;;;;;5.82;3.00;;;1.70;64.40;;;;;;5027650;28;20049;-67
2023/02/09 02:51:42;;;;;;;5.05;2.28;;;1.70;64.40;;;;;;5028733;28;20657;-67
2023/02/09 02:54:20;;;;;;;4.80;2.70;;;1.60;64.40;;;;;;5028936;28;20025;-67
2023/02/09 02:56:56;;;;;;;4.75;2.70;;;1.70;64.50;;;;;;5028501;28;20059;-67
2023/02/09 02:59:28;;;;;;;7.18;3.13;;;1.70;64.40;;;;;;5028557;28;20029;-67
2023/02/09 03:02:00;;;;;;;9.80;4.13;;;1.60;64.10;;;;;;5028889;28;20013;-67
2023/02/09 03:04:29;;;;;;;4.82;2.60;;;1.60;64.00;;;;;;5021227;28;20018;-67
2023/02/09 03:06:54;;;;;;;6.32;2.90;;;1.60;64.00;;;;;;5028722;28;20024;-67
2023/02/09 03:09:20;;;;;;;6.07;3.20;;;1.60;63.80;;;;;;5029085;28;20108;-67
2023/02/09 03:11:50;;;;;;;5.32;2.97;;;1.60;63.70;;;;;;5031267;28;20029;-67
2023/02/09 03:14:28;;;;;;;8.38;3.60;;;1.60;63.70;;;;;;5032368;28;20403;-67
2023/02/09 03:17:22;;;;;;;9.90;3.13;;;1.60;63.30;;;;;;5032149;28;20030;-67
2023/02/09 03:20:00;;;;;;;8.73;3.72;;;1.60;63.30;;;;;;5026358;28;20059;-68
2023/02/09 03:22:32;;;;;;;7.13;4.22;;;1.60;63.20;;;;;;5031226;28;20029;-67
2023/02/09 03:25:14;;;;;;;7.38;3.92;;;1.50;62.80;;;;;;5031597;28;20041;-67
2023/02/09 03:27:49;;;;;;;10.65;3.85;;;1.50;62.60;;;;;;5032547;28;20075;-67
2023/02/09 03:30:16;;;;;;;5.13;3.17;;;1.50;62.50;;;;;;5032201;28;20029;-67
2023/02/09 03:32:45;;;;;;;8.80;3.60;;;1.50;62.50;;;;;;5032418;28;20029;-67
2023/02/09 03:35:15;;;;;;;7.32;3.88;;;1.50;62.50;;;;;;5032501;28;20028;-67
2023/02/09 03:37:41;;;;;;;8.00;3.85;;;1.50;62.30;;;;;;5031844;28;20025;-68
2023/02/09 03:40:07;;;;;;;7.78;3.13;;;1.50;62.20;;;;;;5032224;28;20377;-68
2023/02/09 03:42:33;;;;;;;5.97;3.55;;;1.50;62.30;;;;;;5031919;28;20032;-68
2023/02/09 03:44:58;;;;;;;8.90;3.60;;;1.50;62.40;;;;;;5032085;28;20447;-68
2023/02/09 03:47:24;;;;;;;6.68;3.38;;;1.50;62.30;;;;;;5031572;28;20080;-67
2023/02/09 03:49:50;;;;;;;8.75;4.43;;;1.50;62.30;;;;;;5031535;28;20087;-67
2023/02/09 03:52:16;;;;;;;6.85;3.58;;;1.40;61.60;;;;;;5030610;28;20084;-67
2023/02/09 03:54:42;;;;;;;6.07;2.88;;;1.40;61.60;;;;;;5031529;28;20036;-68
2023/02/09 03:57:09;;;;;;;7.72;4.35;;;1.50;62.00;;;;;;5031746;28;20022;-68
2023/02/09 03:59:36;;;;;;;10.90;4.32;;;1.40;61.70;;;;;;5030235;28;20029;-68
2023/02/09 04:02:03;;;;;;;6.28;3.70;;;1.40;61.50;;;;;;5031823;28;20021;-68
2023/02/09 04:04:29;;;;;;;7.88;3.92;;;1.40;61.50;;;;;;5032055;28;20029;-67
2023/02/09 04:06:55;;;;;;;7.18;3.28;;;1.50;61.80;;;;;;5029129;28;20497;-67
2023/02/09 04:09:20;;;;;;;6.47;3.88;;;1.40;61.70;;;;;;5029937;28;20037;-67
2023/02/09 04:11:46;;;;;;;6.95;3.67;;;1.40;61.80;;;;;;5031228;28;20085;-67
2023/02/09 04:14:12;;;;;;;6.35;2.67;;;1.40;61.90;;;;;;5030700;28;20083;-67
2023/02/09 04:16:38;;;;;;;6.15;2.90;;;1.50;62.10;;;;;;5031420;28;20033;-67
2023/02/09 04:19:04;;;;;;;6.55;3.30;;;1.40;61.90;;;;;;5030605;28;20025;-67
2023/02/09 04:21:30;;;;;;;6.50;3.10;;;1.40;62.60;;;;;;5030793;28;20028;-67
2023/02/09 04:23:56;;;;;;;6.22;3.78;;;1.40;62.00;;;;;;5030635;28;20384;-67
2023/02/09 04:26:22;;;;;;;7.50;3.83;;;1.40;62.00;;;;;;5031364;28;20025;-67
2023/02/09 04:28:48;;;;;;;8.45;3.47;;;1.40;61.90;;;;;;5030538;28;20037;-67
2023/02/09 04:31:14;;;;;;;7.75;4.00;;;1.40;61.80;;;;;;5031338;28;20033;-67
2023/02/09 04:33:40;;;;;;;9.23;3.60;;;1.40;61.80;;;;;;5031069;28;20059;-67
2023/02/09 04:36:06;;;;;;;6.95;3.25;;;1.40;61.80;;;;;;5029208;28;20361;-67
2023/02/09 04:38:32;;;;;;;6.72;3.28;;;1.40;61.70;;;;;;5028195;28;20101;-66
2023/02/09 04:40:59;;;;;;;7.95;3.30;;;1.40;61.80;;;;;;5031275;28;20093;-66
2023/02/09 04:43:25;;;;;;;8.93;4.28;;;1.40;61.80;;;;;;5030734;28;20076;-67
2023/02/09 04:45:51;;;;;;;7.65;4.10;;;1.40;62.30;;;;;;5031330;28;20032;-67
2023/02/09 04:48:19;;;;;;;8.70;4.15;;;1.40;61.60;;;;;;5030773;28;20029;-67
2023/02/09 04:50:45;;;;;;;9.05;3.78;;;1.40;61.60;;;;;;5030126;28;20025;-67
2023/02/09 04:53:11;;;;;;;7.75;3.78;;;1.30;61.60;;;;;;5029959;28;20447;-68
2023/02/09 04:55:38;;;;;;;6.82;3.45;;;1.30;61.70;;;;;;5030675;28;20512;-67
2023/02/09 05:00:48;;;;;;;6.82;3.40;;;1.40;61.90;;;;;;5030687;28;20554;-67
2023/02/09 05:03:14;;;;;;;7.82;4.07;;;1.40;61.80;;;;;;5030699;28;20033;-67
2023/02/09 05:05:40;;;;;;;8.38;4.28;;;1.30;61.70;;;;;;5030706;28;20033;-67
2023/02/09 05:08:07;;;;;;;9.32;3.88;;;1.40;61.80;;;;;;5030392;28;20029;-67
2023/02/09 05:10:33;;;;;;;6.70;3.65;;;1.40;61.80;;;;;;5029234;28;20029;-67
2023/02/09 05:12:59;;;;;;;7.75;3.75;;;1.40;61.80;;;;;;5030074;28;20111;-67
2023/02/09 05:15:25;;;;;;;5.72;3.25;;;1.40;62.00;;;;;;5030713;28;20061;-67
2023/02/09 05:17:50;;;;;;;7.35;3.65;;;1.40;62.00;;;;;;5030508;28;20052;-67
2023/02/09 05:20:16;;;;;;;8.20;3.63;;;1.40;62.00;;;;;;5030369;28;20104;-67
2023/02/09 05:22:42;;;;;;;5.57;2.95;;;1.40;62.10;;;;;;5030534;28;20032;-67
2023/02/09 05:25:08;;;;;;;6.15;3.17;;;1.30;62.00;;;;;;5030367;28;20021;-68
2023/02/09 05:27:33;;;;;;;7.15;3.92;;;1.30;62.20;;;;;;5030286;28;20029;-67
2023/02/09 05:29:59;;;;;;;8.40;4.10;;;1.40;62.30;;;;;;5030161;28;20029;-67
2023/02/09 05:32:24;;;;;;;6.97;3.60;;;1.40;62.20;;;;;;5030083;28;20053;-69
2023/02/09 05:34:50;;;;;;;7.57;3.60;;;1.40;62.20;;;;;;5029927;28;20550;-68
2023/02/09 05:37:15;;;;;;;5.45;3.00;;;1.40;62.30;;;;;;5030407;28;20108;-67
2023/02/09 05:39:41;;;;;;;9.05;4.10;;;1.40;62.40;;;;;;5029766;28;20025;-67
2023/02/09 05:42:16;;;;;;;7.95;3.72;;;1.40;62.40;;;;;;5030014;28;20396;-68
2023/02/09 05:44:45;;;;;;;6.22;3.50;;;1.40;62.30;;;;;;5030183;28;20021;-66
2023/02/09 05:47:11;;;;;;;5.75;3.13;;;1.40;62.50;;;;;;5030132;28;20036;-67
2023/02/09 05:49:37;;;;;;;7.65;3.67;;;1.30;62.50;;;;;;5029692;28;20040;-67
2023/02/09 05:52:03;;;;;;;9.60;4.10;;;1.30;62.50;;;;;;5029486;28;20488;-67
2023/02/09 05:54:28;;;;;;;6.35;3.40;;;1.30;62.60;;;;;;5029904;28;20064;-67
2023/02/09 05:56:54;;;;;;;5.88;3.35;;;1.30;62.70;;;;;;5027991;28;20027;-69
2023/02/09 05:59:19;;;;;;;6.07;2.85;;;1.30;62.80;;;;;;5028347;28;20123;-67
2023/02/09 06:01:45;;;;;;;9.55;4.25;;;1.30;62.90;;;;;;5029781;28;20412;-68
2023/02/09 06:04:11;;;;;;;7.97;3.17;;;1.30;62.80;;;;;;5029711;28;20032;-66
2023/02/09 06:06:36;;;;;;;7.32;3.83;;;1.30;62.90;;;;;;5030169;28;20472;-68
2023/02/09 06:09:03;;;;;;;9.93;4.25;;;1.30;62.90;;;;;;5029605;28;20053;-67
2023/02/09 06:11:28;;;;;;;6.63;3.20;;;1.30;62.90;;;;;;5029724;28;20028;-68
2023/02/09 06:13:54;;;;;;;7.05;3.38;;;1.30;62.80;;;;;;5029732;28;20021;-67
2023/02/09 06:16:19;;;;;;;9.10;3.72;;;1.30;62.80;;;;;;5028360;28;20041;-67
2023/02/09 06:18:45;;;;;;;11.32;4.65;;;1.30;62.90;;;;;;5029678;28;20033;-67
2023/02/09 06:21:11;;;;;;;11.65;4.30;;;1.30;62.90;;;;;;5029563;28;20025;-67
2023/02/09 06:23:37;;;;;;;8.15;4.10;;;1.20;62.80;;;;;;5029524;28;20100;-67
2023/02/09 06:26:07;;;;;;;8.95;4.38;;;1.20;62.90;;;;;;5029648;28;20096;-67
2023/02/09 06:28:32;;;;;;;6.28;3.47;;;1.20;62.90;;;;;;5028625;28;20025;-67
2023/02/09 06:30:58;;;;;;;9.73;4.35;;;1.30;63.10;;;;;;5033104;28;20021;-67
2023/02/09 06:33:23;;;;;;;9.20;3.47;;;1.20;63.00;;;;;;5029720;28;20037;-67
2023/02/09 06:35:49;;;;;;;6.15;3.10;;;1.30;63.10;;;;;;5029380;28;20017;-67
2023/02/09 06:38:15;;;;;;;8.15;3.50;;;1.30;63.20;;;;;;5029493;28;20025;-67
2023/02/09 06:40:40;;;;;;;7.78;3.30;;;1.30;63.30;;;;;;5029357;28;20022;-67
2023/02/09 06:43:06;;;;;;;7.80;3.38;;;1.30;63.40;;;;;;5029456;28;20094;-67
2023/02/09 06:45:31;;;;;;;10.57;4.63;;;1.30;63.40;;;;;;5030573;28;20034;-67
2023/02/09 06:47:57;;;;;;;9.60;4.43;;;1.30;63.10;;;;;;5033003;28;20170;-67
2023/02/09 06:50:22;;;;;;;7.88;3.67;;;1.20;63.00;;;;;;5032486;28;20563;-68
2023/02/09 06:52:48;;;;;;;5.53;3.22;;;1.30;63.20;;;;;;5031026;28;20099;-67
2023/02/09 06:55:14;;;;;;;5.95;3.17;;;1.30;63.20;;;;;;5032637;28;20515;-68
2023/02/09 06:57:40;;;;;;;5.28;2.80;;;1.30;63.20;;;;;;5032841;28;20064;-67
2023/02/09 07:00:08;;;;;;;8.32;4.10;;;1.30;63.40;;;;;;5032573;28;20455;-67
2023/02/09 07:02:34;;;;;;;6.20;3.03;;;1.30;63.50;;;;;;5035369;28;20036;-67
2023/02/09 07:04:59;;;;;;;4.80;3.00;;;1.30;63.50;;;;;;5032499;28;20029;-68
2023/02/09 07:07:25;;;;;;;5.65;2.85;;;1.30;63.60;;;;;;5029586;28;20040;-68
2023/02/09 07:09:51;;;;;;;7.13;3.20;;;1.30;63.70;;;;;;5032568;28;20033;-67
2023/02/09 07:12:16;;;;;;;9.57;4.25;;;1.30;63.70;;;;;;5032498;28;20041;-68
2023/02/09 07:14:42;;;;;;;9.77;4.15;;;1.30;64.30;;;;;;5032767;28;20381;-68
2023/02/09 07:17:08;;;;;;;8.45;3.58;;;1.20;63.40;;;;;;5032311;28;20079;-67
2023/02/09 07:19:33;;;;;;;8.15;3.80;;;1.30;63.60;;;;;;5034562;28;20104;-67
2023/02/09 07:21:59;;;;;;;8.65;4.53;;;1.30;63.50;;;;;;5028215;28;20039;-65
2023/02/09 07:24:24;;;;;;;8.50;3.70;;;1.30;63.50;;;;;;5030068;28;20017;-67
2023/02/09 07:26:50;;;;;;;11.75;4.68;;;1.30;63.50;;;;;;5031482;28;20029;-67
2023/02/09 07:29:15;;;;;;;9.20;4.32;;;1.30;63.50;;;;;;5031597;28;20045;-67
2023/02/09 07:31:41;;;;;;;10.90;5.05;;;1.30;63.30;;;;;;5031734;28;20022;-67
2023/02/09 07:34:07;;;;;;;8.05;3.50;;;1.30;63.20;;;;;;5033516;28;20662;-69
2023/02/09 07:36:33;;;;;;;7.93;3.90;;;1.30;63.30;;;;;;5030776;28;20033;-68
2023/02/09 07:38:58;;;;;;;7.13;3.15;;;1.30;63.30;;;;;;5025278;28;20018;-67
2023/02/09 07:41:25;;;;;;;8.35;3.50;;;1.40;63.40;;;;;;5029448;28;20366;-67
2023/02/09 07:43:51;;;;;;;4.50;2.70;;;1.40;63.40;;;;;;5031161;28;20500;-68
2023/02/09 07:46:19;;;;;;;8.73;3.67;;;1.50;63.50;;;;;;5031166;28;20033;-68
2023/02/09 07:48:46;;;;;;;9.63;3.80;;;1.50;63.90;;;;;;5029982;28;20025;-68
2023/02/09 07:51:14;;;;;;;7.47;3.97;;;1.50;63.30;;;;;;5032235;28;20608;-67
2023/02/09 07:53:40;;;;;;;6.57;3.55;;;1.50;63.40;;;;;;5030770;28;20025;-67
2023/02/09 07:56:05;;;;;;;7.15;2.75;;;1.50;63.30;;;;;;5029628;28;20025;-68
2023/02/09 07:58:31;;;;;;;8.88;4.38;;;1.50;63.30;;;;;;5029942;28;20026;-68
2023/02/09 08:01:03;;;;;;;6.72;3.88;;;1.60;63.40;;;;;;5030704;28;20026;-67
2023/02/09 08:03:29;;;;;;;7.18;3.78;;;1.60;63.30;;;;;;5031224;28;20064;-66
2023/02/09 08:06:28;;;;;;;12.38;3.88;;;1.60;63.70;;;;;;5026738;28;20021;-68
2023/02/09 08:08:54;;;;;;;9.85;3.78;;;1.60;63.20;;;;;;5043179;28;20033;-69
2023/02/09 08:11:28;;;;;;;9.48;4.82;;;1.60;63.10;;;;;;5027488;28;21568;-66
2023/02/09 08:13:57;;;;;;;7.95;3.92;;;1.70;63.20;;;;;;5024083;28;20034;-66
2023/02/09 08:16:28;;;;;;;7.40;3.03;;;1.70;63.20;;;;;;5028656;28;20033;-66
2023/02/09 08:19:01;;;;;;;6.28;3.13;;;1.70;63.70;;;;;;5023624;28;20034;-67
2023/02/09 08:21:27;;;;;;;;;;;1.80;63.20;;;;;;5026716;28;20518;-67
2023/02/09 08:23:55;;;;;;;8.23;4.05;;;1.80;62.90;;;;;;5027565;28;19916;-66
2023/02/09 08:26:21;;;;;;;8.75;4.20;;;1.70;62.90;;;;;;5029581;28;20029;-68
2023/02/09 08:28:47;;;;;;;8.45;3.72;;;1.80;63.00;;;;;;5027816;28;20083;-68
2023/02/09 08:31:17;;;;;;;12.10;5.70;;;1.80;62.90;;;;;;5027683;28;20045;-68
2023/02/09 08:33:45;;;;;;;11.60;4.55;;;1.80;62.40;;;;;;5023933;28;20029;-68
2023/02/09 08:36:12;;;;;;;14.05;6.28;;;1.80;62.40;;;;;;5027367;28;20029;-67
2023/02/09 08:38:38;;;;;;;10.13;4.80;;;1.70;62.50;;;;;;5027680;28;20083;-67
2023/02/09 08:41:07;;;;;;;10.60;4.75;;;1.70;62.40;;;;;;5029023;28;20748;-67
2023/02/09 08:43:33;;;;;;;10.57;5.35;;;1.70;62.50;;;;;;5027852;28;20052;-66
2023/02/09 08:46:04;;;;;;;12.00;4.68;;;1.80;62.50;;;;;;5030062;28;20029;-67
2023/02/09 08:48:31;;;;;;;11.68;4.97;;;1.80;62.40;;;;;;5030360;28;20107;-67
2023/02/09 08:50:57;;;;;;;9.15;4.50;;;1.90;62.50;;;;;;5029979;28;20499;-67
2023/02/09 08:53:22;;;;;;;7.30;3.53;;;1.90;62.40;;;;;;5029504;28;20105;-67
2023/02/09 08:55:48;;;;;;;9.88;4.10;;;2.00;62.50;;;;;;5028500;28;20749;-68
2023/02/09 08:58:13;;;;;;;11.18;4.38;;;2.00;62.30;;;;;;5028116;28;20034;-67
2023/02/09 09:00:39;;;;;;;9.48;4.65;;;2.10;62.40;;;;;;5026425;28;20037;-68
2023/02/09 09:03:05;;;;;;;7.70;4.28;;;2.20;62.30;;;;;;5029584;28;20038;-69
2023/02/09 09:05:33;;;;;;;9.88;4.93;;;2.30;62.30;;;;;;5025889;28;20025;-68
2023/02/09 09:07:58;;;;;;;10.00;3.83;;;2.30;62.20;;;;;;5024336;28;20103;-68
2023/02/09 09:10:24;;;;;;;9.65;4.82;;;2.30;62.00;;;;;;5025509;28;20033;-67
2023/02/09 09:12:50;;;;;;;9.32;4.97;;;2.40;62.10;;;;;;5023878;28;20100;-69
2023/02/09 09:15:16;;;;;;;9.98;4.10;;;2.40;61.80;;;;;;5024408;28;20033;-67
2023/02/09 09:17:41;;;;;;;7.72;3.70;;;2.30;61.90;;;;;;5028751;28;20499;-68
2023/02/09 09:20:08;;;;;;;8.05;3.90;;;2.40;62.10;;;;;;5030245;28;20021;-68
2023/02/09 09:22:33;;;;;;;10.10;2.92;;;2.50;62.10;;;;;;5029045;28;20037;-68
2023/02/09 09:24:59;;;;;;;12.25;5.18;;;2.50;62.00;;;;;;5029262;28;20031;-67
2023/02/09 09:27:24;;;;;;;10.07;4.97;;;2.50;62.00;;;;;;5026822;28;20404;-68
2023/02/09 09:29:50;;;;;;;9.50;4.68;;;2.50;61.80;;;;;;5027596;28;20038;-68
2023/02/09 09:32:15;;;;;;;8.50;4.05;;;2.50;61.90;;;;;;5023940;28;20034;-69
2023/02/09 09:34:41;;;;;;;9.88;4.07;;;2.50;62.00;;;;;;5026589;28;20095;-67
2023/02/09 09:37:07;;;;;;;9.57;4.28;;;2.60;62.20;;;;;;5028522;28;20033;-67
2023/02/09 09:39:33;;;;;;;8.02;4.22;;;2.60;62.20;;;;;;5025582;28;20037;-68
2023/02/09 09:41:59;;;;;;;6.75;3.60;;;2.70;62.20;;;;;;5027491;28;20022;-68
2023/02/09 09:44:30;;;;;;;7.30;3.50;;;2.80;62.20;;;;;;5027127;28;20109;-68
2023/02/09 09:47:00;;;;;;;7.95;4.00;;;2.80;62.20;;;;;;5027158;28;20060;-67
2023/02/09 09:49:27;;;;;;;6.35;3.05;;;2.90;62.20;;;;;;5029146;28;20056;-69
2023/02/09 09:52:00;;;;;;;6.63;2.88;;;3.00;62.20;;;;;;5026119;28;20124;-68
2023/02/09 09:54:30;;;;;;;5.45;2.90;;;3.20;62.20;;;;;;5021615;28;20018;-67
2023/02/09 09:56:56;;;;;;;6.18;3.60;;;3.20;62.10;;;;;;5024551;28;20100;-68
2023/02/09 09:59:27;;;;;;;6.10;3.20;;;3.30;62.10;;;;;;5028677;28;20101;-68
2023/02/09 10:01:54;;;;;;;5.47;3.05;;;3.30;62.00;;;;;;5028240;28;20040;-68
2023/02/09 10:04:20;;;;;;;7.57;3.28;;;3.30;62.00;;;;;;5027832;28;20051;-66
2023/02/09 10:06:55;;;;;;;6.65;3.28;;;3.40;62.10;;;;;;5026747;28;20033;-68
2023/02/09 10:09:31;;;;;;;8.27;3.40;;;3.40;62.00;;;;;;5026203;28;20033;-67
2023/02/09 10:12:29;;;;;;;3.70;2.10;;;3.50;62.10;;;;;;5027001;28;20507;-66
2023/02/09 10:14:54;;;;;;;7.68;3.20;;;3.50;62.00;;;;;;5024588;28;20119;-68
2023/02/09 10:17:20;;;;;;;6.07;2.80;;;3.60;62.00;;;;;;5024811;28;20129;-67
2023/02/09 10:20:06;;;;;;;8.52;3.72;;;3.60;62.10;;;;;;5028712;28;20088;-68
2023/02/09 10:22:31;;;;;;;7.05;3.50;;;3.60;61.80;;;;;;5018606;28;20025;-67
2023/02/09 10:24:58;;;;;;;8.85;3.53;;;3.70;61.80;;;;;;5031728;28;20522;-70
2023/02/09 10:27:27;;;;;;;8.25;3.75;;;3.70;61.80;;;;;;5028122;28;20021;-67
2023/02/09 10:29:53;;;;;;;7.72;3.88;;;3.80;61.70;;;;;;5032290;28;20018;-68
2023/02/09 10:32:22;;;;;;;8.48;4.05;;;3.80;61.60;;;;;;5031049;28;20032;-67
2023/02/09 10:34:50;;;;;;;7.10;3.30;;;3.90;61.50;;;;;;5032502;28;20022;-68
2023/02/09 10:37:33;;;;;;;5.88;2.97;;;4.00;61.60;;;;;;5029832;28;20021;-68
2023/02/09 10:40:11;;;;;;;4.38;2.25;;;4.10;61.50;;;;;;5033155;28;20436;-68
2023/02/09 10:42:41;;;;;;;5.78;2.42;;;4.20;61.40;;;;;;5037197;28;20030;-68
2023/02/09 10:45:19;;;;;;;5.05;2.15;;;4.40;61.40;;;;;;5030248;28;20036;-69
2023/02/09 10:47:59;;;;;;;14.90;5.45;;;4.50;61.30;;;;;;5031073;28;20480;-68
2023/02/09 10:50:25;;;;;;;7.53;3.40;;;4.50;60.90;;;;;;5031144;28;20095;-68
2023/02/09 10:53:01;;;;;;;7.80;3.28;;;4.60;61.00;;;;;;5031094;28;20025;-68
2023/02/09 10:55:35;;;;;;;6.60;3.20;;;4.60;61.00;;;;;;5025125;28;20037;-69
2023/02/09 10:58:09;;;;;;;7.82;3.78;;;4.70;60.80;;;;;;5031618;28;20151;-67
2023/02/09 11:00:45;;;;;;;8.30;3.20;;;4.70;60.90;;;;;;5031415;28;20128;-68
2023/02/09 11:03:20;;;;;;;4.35;2.63;;;4.80;61.00;;;;;;5031503;28;20022;-67
2023/02/09 11:05:55;;;;;;;8.38;3.67;;;4.90;61.00;;;;;;5031691;28;20053;-67
2023/02/09 11:08:23;;;;;;;7.80;3.28;;;5.00;61.00;;;;;;5031505;28;20044;-68
2023/02/09 11:11:02;;;;;;;6.43;3.13;;;5.00;60.80;;;;;;5031977;28;20502;-68
2023/02/09 11:13:28;;;;;;;9.55;3.53;;;5.10;60.80;;;;;;5028939;28;20021;-68
2023/02/09 11:16:27;;;;;;;10.32;4.65;;;5.10;60.40;;;;;;5028599;28;20028;-68
2023/02/09 11:18:59;;;;;;;5.75;3.22;;;5.20;60.60;;;;;;5041829;28;20064;-67
2023/02/09 11:21:28;;;;;;;;;;;5.20;60.80;;;;;;5031057;28;20136;-67
2023/02/09 11:24:02;;;;;;;9.88;4.18;;;5.30;60.60;;;;;;5031714;28;20410;-68
2023/02/09 11:26:38;;;;;;;6.80;3.00;;;5.30;60.30;;;;;;5032030;28;20026;-67
2023/02/09 11:29:29;;;;;;;11.30;3.78;;;5.40;60.50;;;;;;5030437;28;20060;-68
2023/02/09 11:32:04;;;;;;;12.18;4.53;;;5.40;60.60;;;;;;5029915;28;20572;-69
2023/02/09 11:34:41;;;;;;;11.48;5.45;;;5.50;60.70;;;;;;5031115;28;20447;-68
2023/02/09 11:37:18;;;;;;;10.35;5.50;;;5.50;60.60;;;;;;5030470;28;20876;-68
2023/02/09 11:40:14;;;;;;;18.08;6.53;;;5.50;60.70;;;;;;5030122;28;20017;-68
2023/02/09 11:42:47;;;;;;;13.13;6.45;;;5.50;60.70;;;;;;5025425;28;20033;-67
2023/02/09 11:45:19;;;;;;;11.02;4.78;;;5.60;60.70;;;;;;5030606;28;20039;-68
2023/02/09 11:48:18;;;;;;;7.30;3.55;;;5.60;60.70;;;;;;5029581;28;20423;-67
2023/02/09 11:51:22;;;;;;;11.98;4.63;;;5.60;61.00;;;;;;5029929;28;20033;-66
2023/02/09 11:54:03;;;;;;;14.43;5.95;;;5.70;61.00;;;;;;5026017;28;20108;-68
2023/02/09 11:56:33;;;;;;;19.73;6.38;;;5.60;60.80;;;;;;5029679;28;20134;-67
2023/02/09 11:59:22;;;;;;;13.05;6.00;;;5.50;60.50;;;;;;5029535;28;20420;-68
2023/02/09 12:01:53;;;;;;;11.43;4.97;;;5.50;60.70;;;;;;5027816;28;20508;-67
2023/02/09 12:04:37;;;;;;;9.85;3.83;;;5.60;60.80;;;;;;5030041;28;20152;-70
2023/02/09 12:07:44;;;;;;;12.20;5.65;;;5.70;61.00;;;;;;5043524;28;20029;-68
2023/02/09 12:10:31;;;;;;;13.65;5.65;;;5.80;60.80;;;;;;5018843;28;20508;-67
2023/02/09 12:13:24;;;;;;;7.93;3.58;;;6.00;60.40;;;;;;5027661;28;20025;-66
2023/02/09 12:15:53;;;;;;;7.95;3.83;;;6.00;60.30;;;;;;5027546;28;20030;-68
2023/02/09 12:18:25;;;;;;;8.73;3.92;;;6.10;60.20;;;;;;5029914;28;20052;-66
2023/02/09 12:20:55;;;;;;;10.35;4.20;;;6.00;60.50;;;;;;5030109;28;20480;-67
2023/02/09 12:23:40;;;;;;;10.60;5.38;;;6.00;60.70;;;;;;5046352;28;20025;-67
2023/02/09 12:26:11;;;;;;;7.25;4.00;;;6.10;60.60;;;;;;5028500;28;20032;-67
2023/02/09 12:28:44;;;;;;;5.03;2.95;;;6.20;60.50;;;;;;5029901;28;20037;-67
2023/02/09 12:31:17;;;;;;;9.75;4.93;;;6.20;60.50;;;;;;5029475;28;20036;-67
2023/02/09 12:33:45;;;;;;;10.70;5.07;;;6.20;60.50;;;;;;5025321;28;20029;-67
2023/02/09 12:36:14;;;;;;;11.20;5.32;;;6.20;60.90;;;;;;5028357;28;20029;-67
2023/02/09 12:38:49;;;;;;;11.18;4.90;;;6.20;60.90;;;;;;5026267;28;20018;-67
2023/02/09 12:41:20;;;;;;;8.77;4.40;;;6.20;60.90;;;;;;5031468;28;20528;-68
2023/02/09 12:43:46;;;;;;;10.23;4.63;;;6.20;61.00;;;;;;5028699;28;20558;-66
2023/02/09 12:46:12;;;;;;;12.00;5.82;;;6.30;61.10;;;;;;5030407;28;20037;-66
2023/02/09 12:49:10;;;;;;;9.57;3.80;;;6.30;61.00;;;;;;5026278;28;20028;-67
2023/02/09 12:51:41;;;;;;;6.82;3.40;;;6.30;61.20;;;;;;5026595;28;20033;-66
2023/02/09 12:54:34;;;;;;;6.18;2.92;;;6.30;61.40;;;;;;5027227;28;20028;-68
2023/02/09 12:57:14;;;;;;;;;;;6.20;61.50;;;;;;5023720;28;20060;-67
2023/02/09 12:59:49;;;;;;;9.52;4.47;;;6.20;61.50;;;;;;5029025;28;19909;-69
2023/02/09 13:02:24;;;;;;;11.75;5.70;;;6.20;61.70;;;;;;5029970;28;20029;-67
2023/02/09 13:05:00;;;;;;;9.60;4.47;;;6.30;61.80;;;;;;5026176;28;20059;-67
2023/02/09 13:07:31;;;;;;;12.10;5.88;;;6.30;61.80;;;;;;5027860;28;20041;-67
2023/02/09 13:10:06;;;;;;;11.80;4.40;;;6.40;61.80;;;;;;5028560;28;20025;-67
2023/02/09 13:12:41;;;;;;;10.38;5.38;;;6.50;61.80;;;;;;5020608;28;20374;-66